createdAt,value
2019-02-03T00:01:36.054Z,99964.95
2019-02-03T00:05:44.468Z,99959.46
2019-02-03T00:09:52.486Z,99950.67
2019-02-03T00:14:01.000Z,99958.69
2019-02-03T00:18:08.967Z,99963.70
2019-02-03T00:22:17.211Z,99964.52
2019-02-03T00:26:25.283Z,99954.61
2019-02-03T00:30:33.711Z,99959.25
2019-02-03T00:34:41.591Z,99952.27
2019-02-03T00:38:50.251Z,99959.47
2019-02-03T00:42:58.272Z,99956.80
2019-02-03T00:47:06.785Z,99967.00
2019-02-03T00:51:14.722Z,99961.08
2019-02-03T00:55:22.597Z,99962.72
2019-02-03T00:59:30.534Z,99953.08
2019-02-03T01:03:38.468Z,99953.64
2019-02-03T01:07:46.804Z,99942.59
2019-02-03T01:11:54.886Z,99944.91
2019-02-03T01:16:03.146Z,99943.91
2019-02-03T01:20:13.428Z,99940.23
2019-02-03T01:24:20.974Z,99938.69
2019-02-03T01:28:28.754Z,99934.09
2019-02-03T01:32:36.691Z,99934.07
2019-02-03T01:36:44.774Z,99930.98
2019-02-03T01:40:52.499Z,99935.52
2019-02-03T01:45:00.563Z,99923.61
2019-02-03T01:49:08.753Z,99922.07
2019-02-03T01:53:16.777Z,99917.73
2019-02-03T01:57:24.547Z,99913.58
2019-02-03T02:01:33.002Z,99903.25
2019-02-03T02:05:42.182Z,99900.02
2019-02-03T02:09:50.256Z,99899.80
2019-02-03T02:13:58.300Z,99906.88
2019-02-03T02:18:06.339Z,99909.80
2019-02-03T02:22:14.770Z,99914.89
2019-02-03T02:26:22.688Z,99910.53
2019-02-03T02:30:30.500Z,99923.49
2019-02-03T02:34:38.683Z,99932.22
2019-02-03T02:38:46.838Z,99926.41
2019-02-03T02:42:54.666Z,99921.34
2019-02-03T02:47:02.617Z,99931.27
2019-02-03T02:51:10.800Z,99935.84
2019-02-03T02:55:18.925Z,99930.81
2019-02-03T02:59:27.219Z,99927.06
2019-02-03T03:03:35.179Z,99930.45
2019-02-03T03:07:44.449Z,99930.98
2019-02-03T03:11:52.875Z,99932.19
2019-02-03T03:16:01.004Z,99934.61
2019-02-03T03:20:10.126Z,99938.02
2019-02-03T03:24:18.912Z,99930.30
2019-02-03T03:28:27.942Z,99927.77
2019-02-03T03:32:36.765Z,99923.22
2019-02-03T03:36:45.035Z,99927.65
2019-02-03T03:40:52.829Z,99939.34
2019-02-03T03:45:01.055Z,99932.09
2019-02-03T03:49:09.008Z,99936.41
2019-02-03T03:53:18.282Z,99939.58
2019-02-03T03:57:27.242Z,99939.70
2019-02-03T04:01:35.757Z,99940.50
2019-02-03T04:05:43.979Z,99937.03
2019-02-03T04:09:52.183Z,99934.75
2019-02-03T04:14:00.257Z,99942.51
2019-02-03T04:18:10.070Z,99944.40
2019-02-03T04:22:18.497Z,99945.31
2019-02-03T04:26:26.173Z,99952.58
2019-02-03T04:30:35.943Z,99953.45
2019-02-03T04:34:43.731Z,99944.55
2019-02-03T04:38:58.176Z,99951.26
2019-02-03T04:43:02.768Z,99947.49
2019-02-03T04:47:10.768Z,99945.60
2019-02-03T04:51:18.616Z,99950.81
2019-02-03T04:55:26.552Z,99961.05
2019-02-03T04:59:36.024Z,99953.67
2019-02-03T05:03:44.056Z,99954.87
2019-02-03T05:07:52.292Z,99948.98
2019-02-03T05:12:00.728Z,99948.02
2019-02-03T05:16:09.215Z,99952.11
2019-02-03T05:20:18.768Z,99952.12
2019-02-03T05:24:27.109Z,99951.44
2019-02-03T05:28:35.228Z,99950.80
2019-02-03T05:32:43.201Z,99951.97
2019-02-03T05:36:51.532Z,99954.41
2019-02-03T05:40:59.330Z,99961.33
2019-02-03T05:45:09.088Z,99964.98
2019-02-03T05:49:16.906Z,99969.84
2019-02-03T05:53:25.406Z,99967.50
2019-02-03T05:57:33.933Z,99981.61
2019-02-03T06:01:41.682Z,99984.44
2019-02-03T06:05:49.819Z,99991.77
2019-02-03T06:09:57.577Z,99990.98
2019-02-03T06:14:05.604Z,99990.98
2019-02-03T06:18:16.462Z,99999.25
2019-02-03T06:22:24.693Z,100001.88
2019-02-03T06:26:32.626Z,99998.55
2019-02-03T06:31:09.038Z,100002.22
2019-02-03T06:35:17.064Z,100005.09
2019-02-03T06:39:24.867Z,100009.59
2019-02-03T06:43:32.887Z,100013.51
2019-02-03T06:47:40.688Z,100012.55
2019-02-03T06:51:48.426Z,100015.87
2019-02-03T06:55:57.677Z,100016.16
2019-02-03T07:00:07.674Z,100017.18
2019-02-03T07:04:15.397Z,100017.86
2019-02-03T07:08:23.382Z,100010.43
2019-02-03T07:12:31.995Z,100010.99
2019-02-03T07:16:42.725Z,100017.58
2019-02-03T07:20:53.047Z,100025.02
2019-02-03T07:25:03.044Z,100022.63
2019-02-03T07:29:11.095Z,100027.30
2019-02-03T07:33:19.131Z,100029.55
2019-02-03T07:37:26.876Z,100027.48
2019-02-03T07:41:34.723Z,100027.69
2019-02-03T07:45:42.370Z,100023.78
2019-02-03T07:49:50.395Z,100021.25
2019-02-03T07:54:08.109Z,100020.97
2019-02-03T07:58:08.599Z,100024.59
2019-02-03T08:02:18.855Z,100021.86
2019-02-03T08:06:28.007Z,100023.58
2019-02-03T08:10:35.999Z,100015.50
2019-02-03T08:14:43.823Z,100018.42
2019-02-03T08:18:51.614Z,100029.64
2019-02-03T08:22:59.652Z,100027.72
2019-02-03T08:27:08.290Z,100034.13
2019-02-03T08:31:16.783Z,100032.23
2019-02-03T08:35:24.707Z,100035.89
2019-02-03T08:39:32.440Z,100034.20
2019-02-03T08:43:40.369Z,100034.74
2019-02-03T08:47:48.486Z,100043.42
2019-02-03T08:51:56.518Z,100048.46
2019-02-03T08:56:04.156Z,100053.64
2019-02-03T09:00:15.508Z,100050.73
2019-02-03T09:04:23.230Z,100058.18
2019-02-03T09:08:31.309Z,100049.61
2019-02-03T09:12:39.037Z,100039.35
2019-02-03T09:16:47.047Z,100038.34
2019-02-03T09:20:56.118Z,100031.61
2019-02-03T09:25:04.495Z,100029.95
2019-02-03T09:29:12.411Z,100023.59
2019-02-03T09:33:20.473Z,100030.08
2019-02-03T09:37:29.685Z,100027.39
2019-02-03T09:41:38.939Z,100013.48
2019-02-03T09:45:46.711Z,100009.69
2019-02-03T09:49:54.748Z,99999.41
2019-02-03T09:54:02.931Z,99999.41
2019-02-03T09:58:12.266Z,100002.44
2019-02-03T10:02:20.132Z,99994.33
2019-02-03T10:06:28.185Z,100001.02
2019-02-03T10:10:38.177Z,100005.53
2019-02-03T10:14:45.921Z,99999.83
2019-02-03T10:18:53.981Z,99989.79
2019-02-03T10:23:01.989Z,99988.36
2019-02-03T10:27:10.384Z,99982.45
2019-02-03T10:31:18.120Z,99981.57
2019-02-03T10:35:27.487Z,99966.12
2019-02-03T10:39:35.408Z,99966.34
2019-02-03T10:43:43.140Z,99967.64
2019-02-03T10:47:51.375Z,99967.27
2019-02-03T10:51:59.109Z,99976.88
2019-02-03T10:56:06.903Z,99967.46
2019-02-03T11:04:26.702Z,99973.19
2019-02-03T11:08:34.303Z,99973.06
2019-02-03T11:12:42.386Z,99961.51
2019-02-03T11:16:50.167Z,99967.06
2019-02-03T11:20:57.994Z,99963.26
2019-02-03T11:25:06.673Z,99963.42
2019-02-03T11:29:14.434Z,99958.49
2019-02-03T11:33:22.599Z,99959.25
2019-02-03T11:37:30.424Z,99947.31
2019-02-03T11:41:48.610Z,99957.83
2019-02-03T11:45:47.660Z,99938.71
2019-02-03T11:49:55.991Z,99940.87
2019-02-03T11:54:03.759Z,99946.09
2019-02-03T11:58:13.112Z,99940.81
2019-02-03T12:02:21.917Z,99945.23
2019-02-03T12:06:31.402Z,99939.39
2019-02-03T12:10:39.329Z,99938.84
2019-02-03T12:14:50.459Z,99938.56
2019-02-03T12:18:58.294Z,99939.51
2019-02-03T12:23:06.310Z,99932.56
2019-02-03T12:27:14.347Z,99924.95
2019-02-03T12:31:28.821Z,99934.19
2019-02-03T12:35:38.864Z,99938.45
2019-02-03T12:39:48.083Z,99939.23
2019-02-03T12:43:56.816Z,99951.34
2019-02-03T12:48:06.603Z,99946.80
2019-02-03T12:52:14.310Z,99947.27
2019-02-03T12:56:30.601Z,99949.58
2019-02-03T13:00:39.179Z,99953.03
2019-02-03T13:04:49.213Z,99955.20
2019-02-03T13:09:05.848Z,99957.77
2019-02-03T13:13:16.439Z,99965.98
2019-02-03T13:17:25.877Z,99962.50
2019-02-03T13:21:36.537Z,99958.55
2019-02-03T13:25:47.264Z,99967.28
2019-02-03T13:29:58.636Z,99958.78
2019-02-03T13:34:09.834Z,99958.45
2019-02-03T13:38:19.759Z,99964.82
2019-02-03T13:42:36.963Z,99960.03
2019-02-03T13:46:43.776Z,99958.16
2019-02-03T13:50:54.545Z,99959.34
2019-02-03T13:55:01.914Z,99963.23
2019-02-03T13:59:09.527Z,99968.11
2019-02-03T14:03:20.625Z,99979.08
2019-02-03T14:07:37.128Z,99976.20
2019-02-03T14:11:48.811Z,99976.00
2019-02-03T14:15:59.231Z,99981.80
2019-02-03T14:20:19.009Z,99988.27
2019-02-03T14:24:32.965Z,99987.91
2019-02-03T14:28:41.020Z,99991.53
2019-02-03T14:32:48.947Z,99985.62
2019-02-03T14:36:57.902Z,99980.92
2019-02-03T14:41:16.886Z,99985.17
2019-02-03T14:45:27.510Z,99989.05
2019-02-03T14:49:38.874Z,99985.20
2019-02-03T14:53:50.858Z,99986.25
2019-02-03T14:58:10.188Z,99989.47
2019-02-03T15:02:25.103Z,100001.55
2019-02-03T15:06:43.526Z,100004.13
2019-02-03T15:10:57.030Z,100012.29
2019-02-03T15:15:06.176Z,100009.22
2019-02-03T15:19:19.221Z,100007.88
2019-02-03T15:23:32.308Z,100005.81
2019-02-03T15:27:40.039Z,100008.30
2019-02-03T15:31:53.825Z,100008.86
2019-02-03T15:36:01.541Z,100015.48
2019-02-03T15:40:13.488Z,100019.73
2019-02-03T15:44:21.384Z,100025.17
2019-02-03T15:48:29.107Z,100035.86
2019-02-03T15:52:40.884Z,100034.66
2019-02-03T15:56:51.379Z,100043.00
2019-02-03T16:01:04.007Z,100038.33
2019-02-03T16:05:31.912Z,100044.17
2019-02-03T16:09:42.165Z,100048.17
2019-02-03T16:13:55.200Z,100046.70
2019-02-03T16:18:04.937Z,100060.58
2019-02-03T16:22:12.702Z,100067.80
2019-02-03T16:26:24.041Z,100063.20
2019-02-03T16:30:37.459Z,100069.08
2019-02-03T16:34:50.682Z,100076.77
2019-02-03T16:39:05.618Z,100082.25
2019-02-03T16:43:13.615Z,100085.14
2019-02-03T16:47:23.170Z,100084.84
2019-02-03T16:51:31.304Z,100084.84
2019-02-03T16:55:44.145Z,100093.01
2019-02-03T17:00:07.310Z,100091.00
2019-02-03T17:04:15.169Z,100089.81
2019-02-03T17:08:23.128Z,100084.69
2019-02-03T17:12:53.598Z,100089.64
2019-02-03T17:17:03.303Z,100082.88
2019-02-03T17:21:10.856Z,100083.97
2019-02-03T17:25:23.853Z,100079.50
2019-02-03T17:29:33.645Z,100084.49
2019-02-03T17:33:45.974Z,100083.45
2019-02-03T17:37:54.124Z,100080.84
2019-02-03T17:42:10.948Z,100086.30
2019-02-03T17:46:19.828Z,100089.27
2019-02-03T17:50:29.105Z,100085.80
2019-02-03T17:54:37.057Z,100093.17
2019-02-03T17:58:50.004Z,100090.22
2019-02-03T18:03:04.624Z,100084.59
2019-02-03T18:07:14.537Z,100084.27
2019-02-03T18:11:30.902Z,100083.34
2019-02-03T18:15:46.232Z,100093.39
2019-02-03T18:19:56.109Z,100093.24
2019-02-03T18:24:07.760Z,100094.31
2019-02-03T18:28:16.828Z,100095.61
2019-02-03T18:32:24.363Z,100099.86
2019-02-03T18:36:41.581Z,100095.61
2019-02-03T18:40:49.698Z,100090.28
2019-02-03T18:45:02.111Z,100098.97
2019-02-03T18:49:24.105Z,100092.05
2019-02-03T18:53:33.894Z,100095.20
2019-02-03T18:57:43.166Z,100093.30
2019-02-03T19:01:54.018Z,100092.39
2019-02-03T19:06:04.050Z,100101.24
2019-02-03T19:10:18.079Z,100100.78
2019-02-03T19:14:27.935Z,100100.92
2019-02-03T19:18:38.498Z,100105.78
2019-02-03T19:22:49.456Z,100111.98
2019-02-03T19:27:03.619Z,100107.97
2019-02-03T19:31:14.719Z,100112.19
2019-02-03T19:35:28.819Z,100123.25
2019-02-03T19:39:37.990Z,100122.72
2019-02-03T19:43:47.067Z,100128.64
2019-02-03T19:47:59.115Z,100126.46
2019-02-03T19:52:07.545Z,100132.59
2019-02-03T19:56:19.702Z,100136.05
2019-02-03T20:00:35.371Z,100143.71
2019-02-03T20:04:46.737Z,100143.39
2019-02-03T20:08:56.985Z,100138.91
2019-02-03T20:13:10.603Z,100152.17
2019-02-03T20:17:38.657Z,100146.50
2019-02-03T20:22:01.790Z,100143.67
2019-02-03T20:26:12.561Z,100153.23
2019-02-03T20:30:35.860Z,100164.38
2019-02-03T20:34:35.350Z,100166.58
2019-02-03T20:38:43.319Z,100161.59
2019-02-03T20:42:56.797Z,100163.65
2019-02-03T20:47:07.506Z,100164.55
2019-02-03T20:51:16.521Z,100169.67
2019-02-03T20:55:24.365Z,100162.64
2019-02-03T20:59:35.701Z,100160.98
2019-02-03T21:03:45.866Z,100160.61
2019-02-03T21:07:56.048Z,100155.92
2019-02-03T21:12:07.488Z,100164.07
2019-02-03T21:16:15.416Z,100166.70
2019-02-03T21:20:25.003Z,100168.61
2019-02-03T21:24:32.524Z,100166.20
2019-02-03T21:28:43.535Z,100175.89
2019-02-03T21:32:51.673Z,100171.96
2019-02-03T21:37:03.957Z,100176.55
2019-02-03T21:41:18.471Z,100176.37
2019-02-03T21:45:28.965Z,100178.00
2019-02-03T21:49:37.903Z,100182.12
2019-02-03T21:53:45.415Z,100185.73
2019-02-03T21:57:53.365Z,100194.52
2019-02-03T22:02:04.981Z,100192.90
2019-02-03T22:06:14.297Z,100188.56
2019-02-03T22:10:28.249Z,100196.33
2019-02-03T22:14:35.941Z,100205.09
2019-02-03T22:18:43.859Z,100203.02
2019-02-03T22:22:55.000Z,100203.22
2019-02-03T22:27:04.002Z,100203.70
2019-02-03T22:31:13.155Z,100202.37
2019-02-03T22:35:21.833Z,100212.09
2019-02-03T22:39:36.664Z,100215.86
2019-02-03T22:43:44.389Z,100212.86
2019-02-03T22:47:52.295Z,100214.12
2019-02-03T22:52:00.199Z,100218.66
2019-02-03T22:56:10.227Z,100216.63
2019-02-03T23:01:02.334Z,100213.41
2019-02-03T23:05:11.590Z,100213.02
2019-02-03T23:09:34.458Z,100214.35
2019-02-03T23:13:42.085Z,100219.89
2019-02-03T23:17:49.816Z,100227.52
2019-02-03T23:21:57.762Z,100222.75
2019-02-03T23:26:06.001Z,100229.61
2019-02-03T23:30:15.095Z,100225.75
2019-02-03T23:34:23.057Z,100225.94
2019-02-03T23:38:31.062Z,100225.44
2019-02-03T23:42:39.443Z,100233.48
2019-02-03T23:46:47.435Z,100230.47
2019-02-03T23:50:55.470Z,100242.24
2019-02-03T23:55:05.113Z,100241.05
2019-02-03T23:59:12.787Z,100237.05
